This is the latest recevied weather packets stored in our database for station/object KF7SOJ. If no packets are shown the sender has not sent any weather packets the latest 1 day(s).
| Time | Temp. | Humidity | Pressure | Rain* | Wind** | Luminosity | Snow |
|---|---|---|---|---|---|---|---|
| 1778010403 | 9.44° C | 37% | 933.1 hPa | 0 mm | 9.83 m/s, 47° | 1039 W/m² | - |
| 1778010099 | 9.44° C | 34% | 933 hPa | 0 mm | 8.94 m/s, 27° | 1095 W/m² | - |
| 1778009796 | 9.44° C | 36% | 933 hPa | 0 mm | 6.71 m/s, 21° | 1095 W/m² | - |
| 1778009493 | 10° C | 34% | 932.9 hPa | 0 mm | 4.47 m/s, 19° | 1152 W/m² | - |
| 1778009192 | 10° C | 33% | 933.1 hPa | 0 mm | 4.92 m/s, 21° | 1156 W/m² | - |
| 1778008889 | 9.44° C | 34% | 933.1 hPa | 0 mm | 4.47 m/s, 56° | 1123 W/m² | - |
| 1778008587 | 9.44° C | 36% | 933.1 hPa | 0 mm | 6.71 m/s, 26° | 1031 W/m² | - |
| 1778008285 | 9.44° C | 36% | 933.2 hPa | 0 mm | 4.02 m/s, 17° | 1014 W/m² | - |
| 1778007981 | 10° C | 35% | 933 hPa | 0 mm | 3.13 m/s, 357° | 352 W/m² | - |
| 1778007675 | 8.89° C | 34% | 933 hPa | 0 mm | 3.58 m/s, 354° | 393 W/m² | - |
| 1778007373 | 8.33° C | 38% | 933.1 hPa | 0 mm | 2.24 m/s, 28° | 1156 W/m² | - |
| 1778007069 | 8.89° C | 36% | 933.2 hPa | 0 mm | 4.02 m/s, 357° | 326 W/m² | - |
| 1778006765 | 8.33° C | 39% | 933.3 hPa | 0 mm | 6.26 m/s, 353° | 333 W/m² | - |
| 1778006462 | 8.33° C | 39% | 933.3 hPa | 0 mm | 6.26 m/s, 353° | 333 W/m² | - |
| 1778006159 | 7.78° C | 39% | 933.5 hPa | 0 mm | 8.05 m/s, 28° | 317 W/m² | - |
| 1778005857 | 8.33° C | 40% | 933.4 hPa | 0 mm | 3.13 m/s, 20° | 341 W/m² | - |
| 1778005553 | 7.78° C | 38% | 933.3 hPa | 0 mm | 4.02 m/s, 345° | 305 W/m² | - |
| 1778005250 | 8.33° C | 39% | 933.4 hPa | 0 mm | 4.92 m/s, 352° | 341 W/m² | - |
| 1778004946 | 8.33° C | 39% | 933.4 hPa | 0 mm | 5.81 m/s, 16° | 438 W/m² | - |
| 1778004644 | 8.33° C | 39% | 933.4 hPa | 0 mm | 3.58 m/s, 20° | 473 W/m² | - |
| 1778004339 | 7.78° C | 41% | 933.4 hPa | 0 mm | 3.58 m/s, 35° | 419 W/m² | - |
| 1778004038 | 8.33° C | 41% | 933.4 hPa | 0 mm | 4.92 m/s, 25° | 393 W/m² | - |
| 1778003737 | 8.33° C | 39% | 933.4 hPa | 0 mm | 7.15 m/s, 9° | 384 W/m² | - |
| 1778003435 | 8.89° C | 39% | 933.3 hPa | 0 mm | 6.71 m/s, 21° | 356 W/m² | - |
| 1778003132 | 8.33° C | 40% | 933.4 hPa | 0 mm | 4.02 m/s, 21° | 561 W/m² | - |
* Rain latest hour (hover to see other rain measurements)
** Current wind speed in m/s (hover to see current wind gust speed)